sensor_id;sensor_type;location;lat;lon;timestamp;P1;durP1;ratioP1;P2;durP2;ratioP2
9138;SDS011;4604;48.616;9.548;2022-10-04T00:01:22;5.07;;;2.77;;
9138;SDS011;4604;48.616;9.548;2022-10-04T00:03:53;8.63;;;2.67;;
9138;SDS011;4604;48.616;9.548;2022-10-04T00:06:31;5.53;;;3.00;;
9138;SDS011;4604;48.616;9.548;2022-10-04T00:08:58;4.50;;;2.70;;
9138;SDS011;4604;48.616;9.548;2022-10-04T00:11:30;2.77;;;2.50;;
9138;SDS011;4604;48.616;9.548;2022-10-04T00:14:04;7.17;;;3.40;;
9138;SDS011;4604;48.616;9.548;2022-10-04T00:16:33;3.67;;;2.90;;
9138;SDS011;4604;48.616;9.548;2022-10-04T00:22:08;4.63;;;3.07;;
9138;SDS011;4604;48.616;9.548;2022-10-04T00:24:38;4.67;;;3.47;;
9138;SDS011;4604;48.616;9.548;2022-10-04T00:31:12;4.90;;;3.07;;
9138;SDS011;4604;48.616;9.548;2022-10-04T00:33:44;3.70;;;2.57;;
9138;SDS011;4604;48.616;9.548;2022-10-04T00:39:16;6.10;;;2.60;;
9138;SDS011;4604;48.616;9.548;2022-10-04T00:42:01;7.17;;;2.80;;
9138;SDS011;4604;48.616;9.548;2022-10-04T00:44:38;5.13;;;3.67;;
9138;SDS011;4604;48.616;9.548;2022-10-04T00:47:13;9.70;;;5.90;;
9138;SDS011;4604;48.616;9.548;2022-10-04T00:49:57;8.37;;;4.87;;
9138;SDS011;4604;48.616;9.548;2022-10-04T00:52:33;8.83;;;4.57;;
9138;SDS011;4604;48.616;9.548;2022-10-04T00:55:02;8.97;;;4.90;;
9138;SDS011;4604;48.616;9.548;2022-10-04T00:57:36;10.03;;;6.17;;
9138;SDS011;4604;48.616;9.548;2022-10-04T01:00:10;12.47;;;7.57;;
9138;SDS011;4604;48.616;9.548;2022-10-04T01:02:45;10.50;;;4.73;;
9138;SDS011;4604;48.616;9.548;2022-10-04T01:05:18;7.30;;;4.03;;
9138;SDS011;4604;48.616;9.548;2022-10-04T01:07:50;11.27;;;3.60;;
9138;SDS011;4604;48.616;9.548;2022-10-04T01:10:24;4.73;;;3.57;;
9138;SDS011;4604;48.616;9.548;2022-10-04T01:12:54;14.30;;;7.13;;
9138;SDS011;4604;48.616;9.548;2022-10-04T01:15:30;10.90;;;5.17;;
9138;SDS011;4604;48.616;9.548;2022-10-04T01:18:06;9.00;;;4.80;;
9138;SDS011;4604;48.616;9.548;2022-10-04T01:20:48;8.43;;;4.67;;
9138;SDS011;4604;48.616;9.548;2022-10-04T01:23:33;8.53;;;3.80;;
9138;SDS011;4604;48.616;9.548;2022-10-04T01:26:05;6.73;;;3.93;;
9138;SDS011;4604;48.616;9.548;2022-10-04T01:28:53;6.43;;;4.30;;
9138;SDS011;4604;48.616;9.548;2022-10-04T01:31:23;7.90;;;3.60;;
9138;SDS011;4604;48.616;9.548;2022-10-04T01:33:51;6.97;;;3.30;;
9138;SDS011;4604;48.616;9.548;2022-10-04T01:36:19;4.83;;;3.30;;
9138;SDS011;4604;48.616;9.548;2022-10-04T01:38:47;6.90;;;3.00;;
9138;SDS011;4604;48.616;9.548;2022-10-04T01:41:15;6.27;;;3.67;;
9138;SDS011;4604;48.616;9.548;2022-10-04T01:43:46;6.90;;;4.00;;
9138;SDS011;4604;48.616;9.548;2022-10-04T01:46:18;5.90;;;4.30;;
9138;SDS011;4604;48.616;9.548;2022-10-04T01:48:48;7.23;;;4.03;;
9138;SDS011;4604;48.616;9.548;2022-10-04T01:51:16;7.30;;;4.27;;
9138;SDS011;4604;48.616;9.548;2022-10-04T01:53:48;5.00;;;3.77;;
9138;SDS011;4604;48.616;9.548;2022-10-04T01:56:22;7.97;;;3.30;;
9138;SDS011;4604;48.616;9.548;2022-10-04T01:58:56;5.57;;;3.40;;
9138;SDS011;4604;48.616;9.548;2022-10-04T02:01:26;11.43;;;4.47;;
9138;SDS011;4604;48.616;9.548;2022-10-04T02:03:59;5.63;;;3.20;;
9138;SDS011;4604;48.616;9.548;2022-10-04T02:06:29;4.37;;;3.13;;
9138;SDS011;4604;48.616;9.548;2022-10-04T02:09:07;6.70;;;4.07;;
9138;SDS011;4604;48.616;9.548;2022-10-04T02:11:37;5.30;;;3.20;;
9138;SDS011;4604;48.616;9.548;2022-10-04T02:14:10;7.17;;;3.70;;
9138;SDS011;4604;48.616;9.548;2022-10-04T02:16:40;6.33;;;2.87;;
9138;SDS011;4604;48.616;9.548;2022-10-04T02:19:08;5.47;;;3.30;;
9138;SDS011;4604;48.616;9.548;2022-10-04T02:21:37;4.60;;;2.90;;
9138;SDS011;4604;48.616;9.548;2022-10-04T02:24:04;5.80;;;2.73;;
9138;SDS011;4604;48.616;9.548;2022-10-04T02:26:34;6.93;;;2.70;;
9138;SDS011;4604;48.616;9.548;2022-10-04T02:29:01;3.97;;;2.77;;
9138;SDS011;4604;48.616;9.548;2022-10-04T02:31:28;7.30;;;3.53;;
9138;SDS011;4604;48.616;9.548;2022-10-04T02:34:13;4.80;;;2.87;;
9138;SDS011;4604;48.616;9.548;2022-10-04T02:36:43;4.20;;;2.93;;
9138;SDS011;4604;48.616;9.548;2022-10-04T02:39:13;5.03;;;3.03;;
9138;SDS011;4604;48.616;9.548;2022-10-04T02:41:43;2.73;;;2.40;;
9138;SDS011;4604;48.616;9.548;2022-10-04T02:44:15;2.93;;;2.43;;
9138;SDS011;4604;48.616;9.548;2022-10-04T02:46:47;4.60;;;2.57;;
9138;SDS011;4604;48.616;9.548;2022-10-04T02:49:21;3.37;;;2.33;;
9138;SDS011;4604;48.616;9.548;2022-10-04T02:51:57;4.30;;;2.53;;
9138;SDS011;4604;48.616;9.548;2022-10-04T02:54:29;3.90;;;2.60;;
9138;SDS011;4604;48.616;9.548;2022-10-04T02:57:01;3.97;;;2.40;;
9138;SDS011;4604;48.616;9.548;2022-10-04T02:59:28;2.37;;;2.07;;
9138;SDS011;4604;48.616;9.548;2022-10-04T03:01:57;9.97;;;2.77;;
9138;SDS011;4604;48.616;9.548;2022-10-04T03:04:25;2.70;;;2.10;;
9138;SDS011;4604;48.616;9.548;2022-10-04T03:06:54;2.10;;;1.87;;
9138;SDS011;4604;48.616;9.548;2022-10-04T03:09:22;3.37;;;2.40;;
9138;SDS011;4604;48.616;9.548;2022-10-04T03:11:52;4.07;;;2.43;;
9138;SDS011;4604;48.616;9.548;2022-10-04T03:14:20;3.40;;;2.30;;
9138;SDS011;4604;48.616;9.548;2022-10-04T03:16:50;2.27;;;2.07;;
9138;SDS011;4604;48.616;9.548;2022-10-04T03:19:19;2.40;;;2.20;;
9138;SDS011;4604;48.616;9.548;2022-10-04T03:21:49;6.23;;;2.70;;
9138;SDS011;4604;48.616;9.548;2022-10-04T03:24:20;3.87;;;2.70;;
9138;SDS011;4604;48.616;9.548;2022-10-04T03:26:51;6.27;;;4.37;;
9138;SDS011;4604;48.616;9.548;2022-10-04T03:29:21;12.03;;;6.63;;
9138;SDS011;4604;48.616;9.548;2022-10-04T03:31:49;12.27;;;5.73;;
9138;SDS011;4604;48.616;9.548;2022-10-04T03:34:22;26.17;;;12.73;;
9138;SDS011;4604;48.616;9.548;2022-10-04T03:39:26;14.30;;;7.83;;
9138;SDS011;4604;48.616;9.548;2022-10-04T03:41:59;21.00;;;9.83;;
9138;SDS011;4604;48.616;9.548;2022-10-04T03:44:32;17.80;;;9.60;;
9138;SDS011;4604;48.616;9.548;2022-10-04T03:46:59;12.90;;;7.53;;
9138;SDS011;4604;48.616;9.548;2022-10-04T03:49:31;16.70;;;7.03;;
9138;SDS011;4604;48.616;9.548;2022-10-04T03:52:02;9.73;;;6.07;;
9138;SDS011;4604;48.616;9.548;2022-10-04T03:54:30;7.50;;;4.73;;
9138;SDS011;4604;48.616;9.548;2022-10-04T03:56:59;9.47;;;5.13;;
9138;SDS011;4604;48.616;9.548;2022-10-04T03:59:27;7.00;;;4.63;;
9138;SDS011;4604;48.616;9.548;2022-10-04T04:01:59;7.97;;;5.10;;
9138;SDS011;4604;48.616;9.548;2022-10-04T04:04:35;9.83;;;6.13;;
9138;SDS011;4604;48.616;9.548;2022-10-04T04:07:15;16.17;;;8.97;;
9138;SDS011;4604;48.616;9.548;2022-10-04T04:09:49;15.30;;;7.67;;
9138;SDS011;4604;48.616;9.548;2022-10-04T04:12:21;20.83;;;8.93;;
9138;SDS011;4604;48.616;9.548;2022-10-04T04:14:58;19.00;;;9.90;;
9138;SDS011;4604;48.616;9.548;2022-10-04T04:17:35;25.90;;;12.73;;
9138;SDS011;4604;48.616;9.548;2022-10-04T04:20:09;24.90;;;13.47;;
9138;SDS011;4604;48.616;9.548;2022-10-04T04:22:44;27.47;;;14.77;;
9138;SDS011;4604;48.616;9.548;2022-10-04T04:25:22;20.07;;;9.43;;
9138;SDS011;4604;48.616;9.548;2022-10-04T04:27:54;24.60;;;13.00;;
9138;SDS011;4604;48.616;9.548;2022-10-04T04:30:25;28.13;;;12.70;;
9138;SDS011;4604;48.616;9.548;2022-10-04T04:33:02;20.50;;;11.63;;
9138;SDS011;4604;48.616;9.548;2022-10-04T04:35:35;18.93;;;10.10;;
9138;SDS011;4604;48.616;9.548;2022-10-04T04:38:10;22.90;;;11.57;;
9138;SDS011;4604;48.616;9.548;2022-10-04T04:40:41;21.20;;;11.30;;
9138;SDS011;4604;48.616;9.548;2022-10-04T04:43:12;24.23;;;12.50;;
9138;SDS011;4604;48.616;9.548;2022-10-04T04:45:43;23.60;;;12.50;;
9138;SDS011;4604;48.616;9.548;2022-10-04T04:48:13;22.40;;;11.23;;
9138;SDS011;4604;48.616;9.548;2022-10-04T04:50:46;15.53;;;8.80;;
9138;SDS011;4604;48.616;9.548;2022-10-04T04:53:16;14.67;;;7.60;;
9138;SDS011;4604;48.616;9.548;2022-10-04T04:55:48;13.07;;;7.30;;
9138;SDS011;4604;48.616;9.548;2022-10-04T04:58:19;11.73;;;6.83;;
9138;SDS011;4604;48.616;9.548;2022-10-04T05:00:53;11.87;;;6.23;;
9138;SDS011;4604;48.616;9.548;2022-10-04T05:03:22;9.80;;;5.70;;
9138;SDS011;4604;48.616;9.548;2022-10-04T05:05:50;11.80;;;6.73;;
9138;SDS011;4604;48.616;9.548;2022-10-04T05:08:20;14.90;;;7.83;;
9138;SDS011;4604;48.616;9.548;2022-10-04T05:10:49;10.57;;;6.80;;
9138;SDS011;4604;48.616;9.548;2022-10-04T05:13:32;14.17;;;8.17;;
9138;SDS011;4604;48.616;9.548;2022-10-04T05:16:03;12.47;;;7.33;;
9138;SDS011;4604;48.616;9.548;2022-10-04T05:18:31;14.37;;;7.17;;
9138;SDS011;4604;48.616;9.548;2022-10-04T05:21:02;15.17;;;7.80;;
9138;SDS011;4604;48.616;9.548;2022-10-04T05:23:32;13.87;;;7.43;;
9138;SDS011;4604;48.616;9.548;2022-10-04T05:26:00;21.23;;;10.90;;
9138;SDS011;4604;48.616;9.548;2022-10-04T05:28:28;30.67;;;13.90;;
9138;SDS011;4604;48.616;9.548;2022-10-04T05:31:06;30.37;;;15.60;;
9138;SDS011;4604;48.616;9.548;2022-10-04T05:33:54;31.50;;;15.53;;
9138;SDS011;4604;48.616;9.548;2022-10-04T05:36:39;36.40;;;18.10;;
9138;SDS011;4604;48.616;9.548;2022-10-04T05:39:18;54.90;;;26.40;;
9138;SDS011;4604;48.616;9.548;2022-10-04T05:41:55;39.33;;;19.97;;
9138;SDS011;4604;48.616;9.548;2022-10-04T05:44:27;33.33;;;16.83;;
9138;SDS011;4604;48.616;9.548;2022-10-04T05:46:58;19.87;;;9.83;;
9138;SDS011;4604;48.616;9.548;2022-10-04T05:49:27;18.50;;;9.10;;
9138;SDS011;4604;48.616;9.548;2022-10-04T05:51:57;14.93;;;8.70;;
9138;SDS011;4604;48.616;9.548;2022-10-04T05:54:26;18.40;;;8.60;;
9138;SDS011;4604;48.616;9.548;2022-10-04T05:57:10;17.43;;;7.63;;
9138;SDS011;4604;48.616;9.548;2022-10-04T06:00:00;13.17;;;7.30;;
9138;SDS011;4604;48.616;9.548;2022-10-04T06:02:44;15.67;;;7.90;;
9138;SDS011;4604;48.616;9.548;2022-10-04T06:05:27;12.70;;;5.87;;
9138;SDS011;4604;48.616;9.548;2022-10-04T06:08:04;12.90;;;6.17;;
9138;SDS011;4604;48.616;9.548;2022-10-04T06:10:44;27.07;;;7.40;;
9138;SDS011;4604;48.616;9.548;2022-10-04T06:13:38;14.77;;;6.60;;
9138;SDS011;4604;48.616;9.548;2022-10-04T06:16:22;13.60;;;6.23;;
9138;SDS011;4604;48.616;9.548;2022-10-04T06:19:06;10.47;;;6.37;;
9138;SDS011;4604;48.616;9.548;2022-10-04T06:21:54;9.90;;;6.13;;
9138;SDS011;4604;48.616;9.548;2022-10-04T06:24:31;11.37;;;6.80;;
9138;SDS011;4604;48.616;9.548;2022-10-04T06:27:02;13.40;;;7.17;;
9138;SDS011;4604;48.616;9.548;2022-10-04T06:29:36;12.30;;;6.83;;
9138;SDS011;4604;48.616;9.548;2022-10-04T06:32:19;12.87;;;7.20;;
9138;SDS011;4604;48.616;9.548;2022-10-04T06:35:17;15.63;;;9.07;;
9138;SDS011;4604;48.616;9.548;2022-10-04T06:41:01;18.43;;;9.67;;
9138;SDS011;4604;48.616;9.548;2022-10-04T06:43:53;20.97;;;10.03;;
9138;SDS011;4604;48.616;9.548;2022-10-04T06:46:33;18.43;;;10.57;;
9138;SDS011;4604;48.616;9.548;2022-10-04T06:57:54;10.73;;;7.87;;
9138;SDS011;4604;48.616;9.548;2022-10-04T07:00:32;12.70;;;7.77;;
9138;SDS011;4604;48.616;9.548;2022-10-04T07:03:08;13.43;;;7.77;;
9138;SDS011;4604;48.616;9.548;2022-10-04T07:05:38;11.70;;;6.97;;
9138;SDS011;4604;48.616;9.548;2022-10-04T07:08:13;16.77;;;8.90;;
9138;SDS011;4604;48.616;9.548;2022-10-04T07:10:55;14.23;;;9.17;;
9138;SDS011;4604;48.616;9.548;2022-10-04T07:13:40;13.07;;;8.83;;
9138;SDS011;4604;48.616;9.548;2022-10-04T07:16:21;16.33;;;9.20;;
9138;SDS011;4604;48.616;9.548;2022-10-04T07:18:59;14.27;;;9.10;;
9138;SDS011;4604;48.616;9.548;2022-10-04T07:21:36;13.10;;;8.37;;
9138;SDS011;4604;48.616;9.548;2022-10-04T07:24:10;13.37;;;8.40;;
9138;SDS011;4604;48.616;9.548;2022-10-04T07:26:44;22.67;;;11.50;;
9138;SDS011;4604;48.616;9.548;2022-10-04T07:29:16;31.07;;;15.70;;
9138;SDS011;4604;48.616;9.548;2022-10-04T07:31:45;25.47;;;12.90;;
9138;SDS011;4604;48.616;9.548;2022-10-04T07:34:17;14.23;;;8.87;;
9138;SDS011;4604;48.616;9.548;2022-10-04T07:36:49;14.73;;;8.47;;
9138;SDS011;4604;48.616;9.548;2022-10-04T07:39:21;16.30;;;9.00;;
9138;SDS011;4604;48.616;9.548;2022-10-04T07:41:53;18.20;;;10.13;;
9138;SDS011;4604;48.616;9.548;2022-10-04T07:44:29;16.57;;;8.80;;
9138;SDS011;4604;48.616;9.548;2022-10-04T07:47:01;13.40;;;7.97;;
9138;SDS011;4604;48.616;9.548;2022-10-04T07:49:36;15.10;;;8.40;;
9138;SDS011;4604;48.616;9.548;2022-10-04T07:52:13;18.93;;;9.83;;
9138;SDS011;4604;48.616;9.548;2022-10-04T07:55:00;18.20;;;10.33;;
9138;SDS011;4604;48.616;9.548;2022-10-04T07:57:40;18.00;;;9.73;;
9138;SDS011;4604;48.616;9.548;2022-10-04T08:00:16;15.37;;;9.13;;
9138;SDS011;4604;48.616;9.548;2022-10-04T08:02:51;16.47;;;9.93;;
9138;SDS011;4604;48.616;9.548;2022-10-04T08:05:32;16.97;;;10.47;;
9138;SDS011;4604;48.616;9.548;2022-10-04T08:08:10;17.07;;;8.33;;
9138;SDS011;4604;48.616;9.548;2022-10-04T08:10:52;15.43;;;8.77;;
9138;SDS011;4604;48.616;9.548;2022-10-04T08:13:32;12.77;;;8.23;;
9138;SDS011;4604;48.616;9.548;2022-10-04T08:16:11;17.93;;;9.13;;
9138;SDS011;4604;48.616;9.548;2022-10-04T08:18:49;15.60;;;8.50;;
9138;SDS011;4604;48.616;9.548;2022-10-04T08:21:31;15.83;;;8.13;;
9138;SDS011;4604;48.616;9.548;2022-10-04T08:24:11;12.67;;;7.80;;
9138;SDS011;4604;48.616;9.548;2022-10-04T08:26:53;13.47;;;7.13;;
9138;SDS011;4604;48.616;9.548;2022-10-04T08:29:36;13.77;;;7.37;;
9138;SDS011;4604;48.616;9.548;2022-10-04T08:32:31;13.60;;;8.10;;
9138;SDS011;4604;48.616;9.548;2022-10-04T08:38:07;9.63;;;6.47;;
9138;SDS011;4604;48.616;9.548;2022-10-04T08:47:24;13.80;;;8.57;;
9138;SDS011;4604;48.616;9.548;2022-10-04T08:50:15;14.13;;;8.43;;
9138;SDS011;4604;48.616;9.548;2022-10-04T08:53:12;15.83;;;8.13;;
9138;SDS011;4604;48.616;9.548;2022-10-04T08:56:08;17.53;;;8.10;;
9138;SDS011;4604;48.616;9.548;2022-10-04T08:58:59;13.97;;;8.87;;
9138;SDS011;4604;48.616;9.548;2022-10-04T09:05:14;20.70;;;8.60;;
9138;SDS011;4604;48.616;9.548;2022-10-04T09:07:57;13.43;;;8.77;;
9138;SDS011;4604;48.616;9.548;2022-10-04T09:10:49;14.80;;;8.30;;
9138;SDS011;4604;48.616;9.548;2022-10-04T09:13:36;15.03;;;7.37;;
9138;SDS011;4604;48.616;9.548;2022-10-04T09:16:25;13.47;;;7.33;;
9138;SDS011;4604;48.616;9.548;2022-10-04T09:22:06;12.67;;;6.80;;
9138;SDS011;4604;48.616;9.548;2022-10-04T09:24:59;10.40;;;7.13;;
9138;SDS011;4604;48.616;9.548;2022-10-04T09:27:49;12.40;;;7.20;;
9138;SDS011;4604;48.616;9.548;2022-10-04T09:30:31;16.37;;;8.43;;
9138;SDS011;4604;48.616;9.548;2022-10-04T09:33:26;21.60;;;10.47;;
9138;SDS011;4604;48.616;9.548;2022-10-04T09:36:26;12.97;;;7.30;;
9138;SDS011;4604;48.616;9.548;2022-10-04T09:39:32;14.53;;;7.73;;
9138;SDS011;4604;48.616;9.548;2022-10-04T09:42:26;11.97;;;7.10;;
9138;SDS011;4604;48.616;9.548;2022-10-04T09:45:29;16.23;;;7.37;;
9138;SDS011;4604;48.616;9.548;2022-10-04T09:48:19;13.97;;;6.90;;
9138;SDS011;4604;48.616;9.548;2022-10-04T09:56:53;9.03;;;6.67;;
9138;SDS011;4604;48.616;9.548;2022-10-04T10:05:55;11.70;;;6.33;;
9138;SDS011;4604;48.616;9.548;2022-10-04T10:08:39;11.57;;;6.10;;
9138;SDS011;4604;48.616;9.548;2022-10-04T10:11:14;10.43;;;6.07;;
9138;SDS011;4604;48.616;9.548;2022-10-04T10:17:18;14.83;;;6.30;;
9138;SDS011;4604;48.616;9.548;2022-10-04T10:20:15;17.93;;;6.60;;
9138;SDS011;4604;48.616;9.548;2022-10-04T10:23:12;13.43;;;6.33;;
9138;SDS011;4604;48.616;9.548;2022-10-04T10:26:02;12.33;;;6.57;;
9138;SDS011;4604;48.616;9.548;2022-10-04T10:29:02;12.10;;;6.03;;
9138;SDS011;4604;48.616;9.548;2022-10-04T10:31:57;13.73;;;6.17;;
9138;SDS011;4604;48.616;9.548;2022-10-04T10:34:56;11.57;;;5.83;;
9138;SDS011;4604;48.616;9.548;2022-10-04T10:37:51;13.03;;;5.43;;
9138;SDS011;4604;48.616;9.548;2022-10-04T10:40:40;10.37;;;5.80;;
9138;SDS011;4604;48.616;9.548;2022-10-04T10:43:26;12.53;;;5.63;;
9138;SDS011;4604;48.616;9.548;2022-10-04T10:46:11;9.17;;;5.37;;
9138;SDS011;4604;48.616;9.548;2022-10-04T10:48:54;11.10;;;6.07;;
9138;SDS011;4604;48.616;9.548;2022-10-04T10:54:57;9.83;;;5.43;;
9138;SDS011;4604;48.616;9.548;2022-10-04T10:57:45;7.40;;;4.83;;
9138;SDS011;4604;48.616;9.548;2022-10-04T11:00:25;11.00;;;5.50;;
9138;SDS011;4604;48.616;9.548;2022-10-04T11:03:19;7.93;;;4.80;;
9138;SDS011;4604;48.616;9.548;2022-10-04T11:06:14;8.43;;;4.63;;
9138;SDS011;4604;48.616;9.548;2022-10-04T11:12:10;11.87;;;5.10;;
9138;SDS011;4604;48.616;9.548;2022-10-04T11:18:28;9.40;;;4.40;;
9138;SDS011;4604;48.616;9.548;2022-10-04T11:21:35;7.53;;;3.78;;
9138;SDS011;4604;48.616;9.548;2022-10-04T11:24:45;8.35;;;3.95;;
9138;SDS011;4604;48.616;9.548;2022-10-04T11:27:42;4.07;;;3.67;;
9138;SDS011;4604;48.616;9.548;2022-10-04T11:30:17;7.95;;;4.00;;
9138;SDS011;4604;48.616;9.548;2022-10-04T11:32:53;6.20;;;3.45;;
9138;SDS011;4604;48.616;9.548;2022-10-04T11:35:45;6.82;;;3.92;;
9138;SDS011;4604;48.616;9.548;2022-10-04T11:38:24;6.22;;;3.63;;
9138;SDS011;4604;48.616;9.548;2022-10-04T11:41:06;5.97;;;3.45;;
9138;SDS011;4604;48.616;9.548;2022-10-04T11:46:40;6.80;;;3.30;;
9138;SDS011;4604;48.616;9.548;2022-10-04T11:49:22;6.95;;;3.38;;
9138;SDS011;4604;48.616;9.548;2022-10-04T11:58:33;3.30;;;2.75;;
9138;SDS011;4604;48.616;9.548;2022-10-04T12:04:23;4.70;;;2.80;;
9138;SDS011;4604;48.616;9.548;2022-10-04T12:07:23;4.97;;;2.80;;
9138;SDS011;4604;48.616;9.548;2022-10-04T12:10:03;4.82;;;2.20;;
9138;SDS011;4604;48.616;9.548;2022-10-04T12:12:51;5.47;;;2.78;;
9138;SDS011;4604;48.616;9.548;2022-10-04T12:15:40;3.15;;;2.47;;
9138;SDS011;4604;48.616;9.548;2022-10-04T12:18:35;4.22;;;2.60;;
9138;SDS011;4604;48.616;9.548;2022-10-04T12:21:34;3.92;;;2.80;;
9138;SDS011;4604;48.616;9.548;2022-10-04T12:24:13;3.85;;;2.60;;
9138;SDS011;4604;48.616;9.548;2022-10-04T12:30:11;5.10;;;3.05;;
9138;SDS011;4604;48.616;9.548;2022-10-04T12:32:48;5.55;;;2.70;;
9138;SDS011;4604;48.616;9.548;2022-10-04T12:35:29;5.75;;;2.40;;
9138;SDS011;4604;48.616;9.548;2022-10-04T12:38:12;3.05;;;2.33;;
9138;SDS011;4604;48.616;9.548;2022-10-04T12:41:02;3.65;;;2.80;;
9138;SDS011;4604;48.616;9.548;2022-10-04T12:43:39;4.97;;;2.90;;
9138;SDS011;4604;48.616;9.548;2022-10-04T12:46:19;3.65;;;2.60;;
9138;SDS011;4604;48.616;9.548;2022-10-04T12:49:01;4.15;;;2.70;;
9138;SDS011;4604;48.616;9.548;2022-10-04T12:51:48;7.45;;;2.72;;
9138;SDS011;4604;48.616;9.548;2022-10-04T12:54:26;4.53;;;2.60;;
9138;SDS011;4604;48.616;9.548;2022-10-04T12:57:03;4.47;;;3.00;;
9138;SDS011;4604;48.616;9.548;2022-10-04T12:59:46;5.22;;;2.70;;
9138;SDS011;4604;48.616;9.548;2022-10-04T13:02:34;3.28;;;2.67;;
9138;SDS011;4604;48.616;9.548;2022-10-04T13:05:18;4.43;;;2.63;;
9138;SDS011;4604;48.616;9.548;2022-10-04T13:08:14;3.28;;;2.63;;
9138;SDS011;4604;48.616;9.548;2022-10-04T13:10:54;3.45;;;2.50;;
9138;SDS011;4604;48.616;9.548;2022-10-04T13:13:39;2.97;;;2.50;;
9138;SDS011;4604;48.616;9.548;2022-10-04T13:16:32;3.47;;;2.42;;
9138;SDS011;4604;48.616;9.548;2022-10-04T13:19:12;3.65;;;2.70;;
9138;SDS011;4604;48.616;9.548;2022-10-04T13:21:52;3.88;;;2.60;;
9138;SDS011;4604;48.616;9.548;2022-10-04T13:24:33;17.83;;;2.53;;
9138;SDS011;4604;48.616;9.548;2022-10-04T13:27:21;4.93;;;2.72;;
9138;SDS011;4604;48.616;9.548;2022-10-04T13:29:56;3.00;;;2.70;;
9138;SDS011;4604;48.616;9.548;2022-10-04T13:32:31;3.75;;;2.50;;
9138;SDS011;4604;48.616;9.548;2022-10-04T13:35:09;6.13;;;2.40;;
9138;SDS011;4604;48.616;9.548;2022-10-04T13:37:43;7.20;;;2.38;;
9138;SDS011;4604;48.616;9.548;2022-10-04T13:40:27;4.05;;;2.90;;
9138;SDS011;4604;48.616;9.548;2022-10-04T13:48:49;6.30;;;2.80;;
9138;SDS011;4604;48.616;9.548;2022-10-04T13:51:31;4.43;;;2.65;;
9138;SDS011;4604;48.616;9.548;2022-10-04T13:54:15;4.57;;;2.22;;
9138;SDS011;4604;48.616;9.548;2022-10-04T13:57:12;4.60;;;2.80;;
9138;SDS011;4604;48.616;9.548;2022-10-04T13:59:49;6.53;;;2.90;;
9138;SDS011;4604;48.616;9.548;2022-10-04T14:11:50;4.30;;;2.70;;
9138;SDS011;4604;48.616;9.548;2022-10-04T14:30:32;7.95;;;3.20;;
9138;SDS011;4604;48.616;9.548;2022-10-04T14:36:18;4.20;;;2.70;;
9138;SDS011;4604;48.616;9.548;2022-10-04T14:39:13;3.30;;;2.63;;
9138;SDS011;4604;48.616;9.548;2022-10-04T14:42:03;3.00;;;2.60;;
9138;SDS011;4604;48.616;9.548;2022-10-04T14:44:55;4.63;;;2.42;;
9138;SDS011;4604;48.616;9.548;2022-10-04T14:48:04;5.63;;;2.70;;
9138;SDS011;4604;48.616;9.548;2022-10-04T14:50:44;3.95;;;2.70;;
9138;SDS011;4604;48.616;9.548;2022-10-04T14:53:22;3.58;;;2.65;;
9138;SDS011;4604;48.616;9.548;2022-10-04T14:58:58;2.55;;;2.30;;
9138;SDS011;4604;48.616;9.548;2022-10-04T15:01:37;3.28;;;2.40;;
9138;SDS011;4604;48.616;9.548;2022-10-04T15:04:22;3.42;;;2.40;;
9138;SDS011;4604;48.616;9.548;2022-10-04T15:06:59;4.93;;;2.40;;
9138;SDS011;4604;48.616;9.548;2022-10-04T15:09:35;4.18;;;2.80;;
9138;SDS011;4604;48.616;9.548;2022-10-04T15:12:19;5.28;;;2.20;;
9138;SDS011;4604;48.616;9.548;2022-10-04T15:15:02;4.50;;;2.75;;
9138;SDS011;4604;48.616;9.548;2022-10-04T15:17:57;4.60;;;2.53;;
9138;SDS011;4604;48.616;9.548;2022-10-04T15:20:31;3.25;;;2.40;;
9138;SDS011;4604;48.616;9.548;2022-10-04T15:23:14;3.03;;;2.40;;
9138;SDS011;4604;48.616;9.548;2022-10-04T15:25:45;4.18;;;2.47;;
9138;SDS011;4604;48.616;9.548;2022-10-04T15:31:00;2.80;;;2.50;;
9138;SDS011;4604;48.616;9.548;2022-10-04T15:33:42;2.78;;;2.58;;
9138;SDS011;4604;48.616;9.548;2022-10-04T15:36:28;2.75;;;2.33;;
9138;SDS011;4604;48.616;9.548;2022-10-04T15:39:07;2.50;;;2.30;;
9138;SDS011;4604;48.616;9.548;2022-10-04T15:42:00;3.78;;;2.50;;
9138;SDS011;4604;48.616;9.548;2022-10-04T15:44:54;2.80;;;2.50;;
9138;SDS011;4604;48.616;9.548;2022-10-04T15:47:55;3.97;;;2.58;;
9138;SDS011;4604;48.616;9.548;2022-10-04T15:50:36;5.25;;;2.50;;
9138;SDS011;4604;48.616;9.548;2022-10-04T15:56:22;3.47;;;2.67;;
9138;SDS011;4604;48.616;9.548;2022-10-04T15:59:19;4.15;;;2.58;;
9138;SDS011;4604;48.616;9.548;2022-10-04T16:02:16;3.13;;;2.60;;
9138;SDS011;4604;48.616;9.548;2022-10-04T16:05:04;3.55;;;2.55;;
9138;SDS011;4604;48.616;9.548;2022-10-04T16:07:42;4.53;;;3.08;;
9138;SDS011;4604;48.616;9.548;2022-10-04T16:10:46;5.35;;;3.33;;
9138;SDS011;4604;48.616;9.548;2022-10-04T16:13:34;4.00;;;2.70;;
9138;SDS011;4604;48.616;9.548;2022-10-04T16:19:24;5.50;;;3.22;;
9138;SDS011;4604;48.616;9.548;2022-10-04T16:22:09;4.57;;;3.35;;
9138;SDS011;4604;48.616;9.548;2022-10-04T16:24:40;4.47;;;3.67;;
9138;SDS011;4604;48.616;9.548;2022-10-04T16:27:24;14.57;;;3.25;;
9138;SDS011;4604;48.616;9.548;2022-10-04T16:30:15;4.57;;;3.17;;
9138;SDS011;4604;48.616;9.548;2022-10-04T16:35:59;5.68;;;2.92;;
9138;SDS011;4604;48.616;9.548;2022-10-04T16:38:32;4.50;;;3.00;;
9138;SDS011;4604;48.616;9.548;2022-10-04T16:41:28;5.78;;;3.25;;
9138;SDS011;4604;48.616;9.548;2022-10-04T16:44:00;3.88;;;3.00;;
9138;SDS011;4604;48.616;9.548;2022-10-04T16:46:29;3.95;;;3.20;;
9138;SDS011;4604;48.616;9.548;2022-10-04T16:49:01;4.07;;;3.40;;
9138;SDS011;4604;48.616;9.548;2022-10-04T16:51:51;4.07;;;3.40;;
9138;SDS011;4604;48.616;9.548;2022-10-04T16:54:52;6.28;;;4.00;;
9138;SDS011;4604;48.616;9.548;2022-10-04T16:57:36;4.55;;;3.65;;
9138;SDS011;4604;48.616;9.548;2022-10-04T17:03:10;5.18;;;4.32;;
9138;SDS011;4604;48.616;9.548;2022-10-04T17:06:08;8.38;;;6.00;;
9138;SDS011;4604;48.616;9.548;2022-10-04T17:08:46;14.05;;;9.15;;
9138;SDS011;4604;48.616;9.548;2022-10-04T17:14:20;9.07;;;6.60;;
9138;SDS011;4604;48.616;9.548;2022-10-04T17:17:02;6.95;;;5.40;;
9138;SDS011;4604;48.616;9.548;2022-10-04T17:19:42;7.15;;;4.57;;
9138;SDS011;4604;48.616;9.548;2022-10-04T17:22:15;4.25;;;3.85;;
9138;SDS011;4604;48.616;9.548;2022-10-04T17:24:52;5.45;;;4.03;;
9138;SDS011;4604;48.616;9.548;2022-10-04T17:27:40;5.88;;;4.20;;
9138;SDS011;4604;48.616;9.548;2022-10-04T17:30:13;5.32;;;4.10;;
9138;SDS011;4604;48.616;9.548;2022-10-04T17:32:46;4.97;;;3.88;;
9138;SDS011;4604;48.616;9.548;2022-10-04T17:38:27;10.48;;;6.07;;
9138;SDS011;4604;48.616;9.548;2022-10-04T17:41:02;8.27;;;5.68;;
9138;SDS011;4604;48.616;9.548;2022-10-04T17:43:40;6.60;;;4.60;;
9138;SDS011;4604;48.616;9.548;2022-10-04T17:46:29;3.40;;;3.10;;
9138;SDS011;4604;48.616;9.548;2022-10-04T17:49:07;5.00;;;3.10;;
9138;SDS011;4604;48.616;9.548;2022-10-04T17:52:00;3.95;;;3.05;;
9138;SDS011;4604;48.616;9.548;2022-10-04T17:54:48;4.97;;;3.40;;
9138;SDS011;4604;48.616;9.548;2022-10-04T17:57:37;3.05;;;2.75;;
9138;SDS011;4604;48.616;9.548;2022-10-04T18:00:09;4.55;;;2.97;;
9138;SDS011;4604;48.616;9.548;2022-10-04T18:02:48;4.45;;;3.35;;
9138;SDS011;4604;48.616;9.548;2022-10-04T18:05:27;5.70;;;3.22;;
9138;SDS011;4604;48.616;9.548;2022-10-04T18:07:56;4.30;;;3.38;;
9138;SDS011;4604;48.616;9.548;2022-10-04T18:10:30;3.70;;;3.10;;
9138;SDS011;4604;48.616;9.548;2022-10-04T18:13:00;5.67;;;3.60;;
9138;SDS011;4604;48.616;9.548;2022-10-04T18:15:40;4.23;;;3.33;;
9138;SDS011;4604;48.616;9.548;2022-10-04T18:18:14;5.13;;;4.10;;
9138;SDS011;4604;48.616;9.548;2022-10-04T18:20:57;5.37;;;4.10;;
9138;SDS011;4604;48.616;9.548;2022-10-04T18:23:32;5.27;;;4.33;;
9138;SDS011;4604;48.616;9.548;2022-10-04T18:26:04;5.17;;;3.90;;
9138;SDS011;4604;48.616;9.548;2022-10-04T18:28:36;4.72;;;3.92;;
9138;SDS011;4604;48.616;9.548;2022-10-04T18:31:13;4.27;;;3.20;;
9138;SDS011;4604;48.616;9.548;2022-10-04T18:33:49;4.45;;;3.30;;
9138;SDS011;4604;48.616;9.548;2022-10-04T18:36:20;4.80;;;3.13;;
9138;SDS011;4604;48.616;9.548;2022-10-04T18:38:59;4.30;;;3.30;;
9138;SDS011;4604;48.616;9.548;2022-10-04T18:41:28;3.57;;;2.90;;